Aviation Digital Data Service (ADDS)

Output produced by METARs form (1608 UTC 20 April 2014)
found at http://aviationweather.gov/adds/metars/
 
KGFL 201133Z 2012/2112 VRB03KT P6SM SKC 
     FM201500 17006KT P6SM SCT250 
     FM210000 19003KT P6SM BKN200